This is the latest recevied weather packets stored in our database for station/object N0HOT. If no packets are shown the sender has not sent any weather packets the latest 1 day(s).
| Time | Temp. | Humidity | Pressure | Rain* | Wind** | Luminosity | Snow |
|---|---|---|---|---|---|---|---|
| 1778029115 | 10° C | 34% | 1011.1 hPa | 0 mm | 0 m/s | 9 W/m² | - |
| 1778028812 | 10.56° C | 33% | 1010.8 hPa | 0 mm | 0 m/s | 12 W/m² | - |
| 1778028508 | 10.56° C | 32% | 1010.8 hPa | 0 mm | 1.34 m/s, 3° | 17 W/m² | - |
| 1778028205 | 10.56° C | 32% | 1010.8 hPa | 0 mm | 0 m/s | 26 W/m² | - |
| 1778027901 | 10.56° C | 33% | 1010.8 hPa | 0 mm | 0 m/s | 31 W/m² | - |
| 1778027598 | 10.56° C | 32% | 1010.5 hPa | 0 mm | 0 m/s | 39 W/m² | - |
| 1778027294 | 10.56° C | 31% | 1010.8 hPa | 0 mm | 0 m/s | 39 W/m² | - |
| 1778026991 | 10.56° C | 31% | 1010.5 hPa | 0 mm | 0.45 m/s, 18° | 49 W/m² | - |
| 1778026686 | 10.56° C | 31% | 1010.5 hPa | 0 mm | 1.34 m/s, 296° | 35 W/m² | - |
| 1778026384 | 10.56° C | 31% | 1010.5 hPa | 0 mm | 0.45 m/s, 64° | 45 W/m² | - |
| 1778026081 | 10.56° C | 31% | 1010.5 hPa | 0 mm | 0.89 m/s, 6° | 57 W/m² | - |
| 1778025778 | 10.56° C | 31% | 1010.5 hPa | 0 mm | 0.45 m/s, 53° | 77 W/m² | - |
| 1778025475 | 10.56° C | 30% | 1010.5 hPa | 0 mm | 0.45 m/s, 159° | 61 W/m² | - |
| 1778025173 | 10.56° C | 30% | 1010.5 hPa | 0 mm | 0.89 m/s, 163° | 49 W/m² | - |
| 1778024869 | 10.56° C | 32% | 1010.5 hPa | 0 mm | 0 m/s | 40 W/m² | - |
| 1778024567 | 11.11° C | 31% | 1010.5 hPa | 0 mm | 0.45 m/s, 151° | 30 W/m² | - |
| 1778024263 | 11.11° C | 29% | 1010.5 hPa | 0 mm | 0.89 m/s, 187° | 32 W/m² | - |
| 1778023962 | 11.11° C | 29% | 1010.1 hPa | 0 mm | 1.34 m/s, 210° | 39 W/m² | - |
| 1778023659 | 11.11° C | 28% | 1010.5 hPa | 0 mm | 0.89 m/s, 187° | 32 W/m² | - |
| 1778023356 | 11.67° C | 27% | 1010.5 hPa | 0 mm | 0.89 m/s, 166° | 39 W/m² | - |
| 1778023052 | 11.67° C | 28% | 1010.1 hPa | 0 mm | 1.34 m/s, 241° | 47 W/m² | - |
| 1778022752 | 11.67° C | 28% | 1010.5 hPa | 0 mm | 1.34 m/s, 175° | 80 W/m² | - |
| 1778022449 | 11.67° C | 30% | 1010.1 hPa | 0 mm | 0.89 m/s, 225° | 65 W/m² | - |
| 1778022146 | 11.67° C | 27% | 1010.1 hPa | 0 mm | 0.89 m/s, 186° | 119 W/m² | - |
| 1778021842 | 11.67° C | 28% | 1010.1 hPa | 0 mm | 1.34 m/s, 183° | 90 W/m² | - |
* Rain latest hour (hover to see other rain measurements)
** Current wind speed in m/s (hover to see current wind gust speed)